createdAt,value
2017-11-08T00:01:01.551Z,20.50
2017-11-08T00:03:29.593Z,21.73
2017-11-08T00:05:58.307Z,21.33
2017-11-08T00:08:27.259Z,20.40
2017-11-08T00:10:56.651Z,20.43
2017-11-08T00:13:24.872Z,21.67
2017-11-08T00:15:53.063Z,21.53
2017-11-08T00:18:21.847Z,20.67
2017-11-08T00:20:50.619Z,20.30
2017-11-08T00:23:20.665Z,21.73
2017-11-08T00:25:48.827Z,21.20
2017-11-08T00:28:16.938Z,21.13
2017-11-08T00:30:45.148Z,21.83
2017-11-08T00:33:14.616Z,20.50
2017-11-08T00:35:43.361Z,21.30
2017-11-08T00:38:12.115Z,22.23
2017-11-08T00:40:41.773Z,22.33
2017-11-08T00:43:09.836Z,22.57
2017-11-08T00:45:38.054Z,24.07
2017-11-08T00:48:06.823Z,21.17
2017-11-08T00:50:34.900Z,21.93
2017-11-08T00:53:03.126Z,21.67
2017-11-08T00:55:32.676Z,23.27
2017-11-08T00:58:00.730Z,23.40
2017-11-08T01:00:28.903Z,24.60
2017-11-08T01:02:57.430Z,23.00
2017-11-08T01:05:26.070Z,21.50
2017-11-08T01:07:54.947Z,24.20
2017-11-08T01:10:24.814Z,24.57
2017-11-08T01:12:53.470Z,22.70
2017-11-08T01:15:21.820Z,24.37
2017-11-08T01:17:51.064Z,24.37
2017-11-08T01:20:19.798Z,24.70
2017-11-08T01:22:49.247Z,25.40
2017-11-08T01:25:17.908Z,24.53
2017-11-08T01:27:46.750Z,25.30
2017-11-08T01:30:14.940Z,26.37
2017-11-08T01:32:43.626Z,24.10
2017-11-08T01:35:18.939Z,24.33
2017-11-08T01:37:47.651Z,23.73
2017-11-08T01:40:18.950Z,25.97
2017-11-08T01:42:47.851Z,24.20
2017-11-08T01:45:15.935Z,25.93
2017-11-08T01:47:44.051Z,25.27
2017-11-08T01:50:13.003Z,25.87
2017-11-08T01:52:41.847Z,27.00
2017-11-08T01:55:11.464Z,27.47
2017-11-08T01:57:40.879Z,26.63
2017-11-08T02:00:09.851Z,26.80
2017-11-08T02:02:38.665Z,27.40
2017-11-08T02:05:08.027Z,28.03
2017-11-08T02:07:36.663Z,27.80
2017-11-08T02:10:05.470Z,28.93
2017-11-08T02:12:33.663Z,27.70
2017-11-08T02:15:01.792Z,28.37
2017-11-08T02:17:30.694Z,30.80
2017-11-08T02:19:59.419Z,29.53
2017-11-08T02:22:28.239Z,33.80
2017-11-08T02:25:00.574Z,35.07
2017-11-08T02:27:33.968Z,37.30
2017-11-08T02:30:03.042Z,35.67
2017-11-08T02:32:31.259Z,36.07
2017-11-08T02:35:01.087Z,37.00
2017-11-08T02:37:29.968Z,37.27
2017-11-08T02:39:58.529Z,33.80
2017-11-08T02:42:26.658Z,31.37
2017-11-08T02:44:56.466Z,32.90
2017-11-08T02:47:25.291Z,31.73
2017-11-08T02:49:53.367Z,35.60
2017-11-08T02:52:21.551Z,33.20
2017-11-08T02:54:53.650Z,34.77
2017-11-08T02:57:21.695Z,33.03
2017-11-08T02:59:50.235Z,34.33
2017-11-08T03:02:24.996Z,33.33
2017-11-08T03:04:57.223Z,34.20
2017-11-08T03:07:26.078Z,33.80
2017-11-08T03:09:54.186Z,33.13
2017-11-08T03:12:22.382Z,32.33
2017-11-08T03:14:51.855Z,32.17
2017-11-08T03:17:19.955Z,30.53
2017-11-08T03:19:48.751Z,31.53
2017-11-08T03:22:18.347Z,31.67
2017-11-08T03:24:47.629Z,30.90
2017-11-08T03:27:16.170Z,29.13
2017-11-08T03:29:45.075Z,29.63
2017-11-08T03:32:13.131Z,30.43
2017-11-08T03:34:41.239Z,26.87
2017-11-08T03:37:09.691Z,26.20
2017-11-08T03:39:37.803Z,29.03
2017-11-08T03:42:05.867Z,28.30
2017-11-08T03:44:34.102Z,26.77
2017-11-08T03:47:02.298Z,26.90
2017-11-08T03:49:30.564Z,28.87
2017-11-08T03:51:58.823Z,27.50
2017-11-08T03:54:27.619Z,28.00
2017-11-08T03:56:55.722Z,26.43
2017-11-08T03:59:23.951Z,25.90
2017-11-08T04:01:52.764Z,28.17
2017-11-08T04:04:20.832Z,24.40
2017-11-08T04:06:49.010Z,25.50
2017-11-08T04:09:17.059Z,25.90
2017-11-08T04:11:45.905Z,25.07
2017-11-08T04:14:14.138Z,24.40
2017-11-08T04:16:42.996Z,24.80
2017-11-08T04:19:11.122Z,24.27
2017-11-08T04:21:39.375Z,23.93
2017-11-08T04:24:08.246Z,25.00
2017-11-08T04:26:36.358Z,24.90
2017-11-08T04:29:04.598Z,25.60
2017-11-08T04:31:32.706Z,20.83
2017-11-08T04:34:00.814Z,23.63
2017-11-08T04:36:29.039Z,22.30
2017-11-08T04:38:58.645Z,20.97
2017-11-08T04:41:28.147Z,21.20
2017-11-08T04:43:56.851Z,21.50
2017-11-08T04:46:25.627Z,21.30
2017-11-08T04:48:54.651Z,22.30
2017-11-08T04:51:22.882Z,20.63
2017-11-08T04:53:50.945Z,20.70
2017-11-08T04:56:19.134Z,20.53
2017-11-08T04:58:47.354Z,21.90
2017-11-08T05:01:15.423Z,23.17
2017-11-08T05:03:43.565Z,20.70
2017-11-08T05:06:13.096Z,21.50
2017-11-08T05:08:41.718Z,22.47
2017-11-08T05:11:10.347Z,20.63
2017-11-08T05:13:39.909Z,19.60
2017-11-08T05:16:08.476Z,22.50
2017-11-08T05:18:36.586Z,19.90
2017-11-08T05:21:04.766Z,22.40
2017-11-08T05:23:32.872Z,19.83
2017-11-08T05:26:01.696Z,21.93
2017-11-08T05:28:30.422Z,20.03
2017-11-08T05:30:58.515Z,19.63
2017-11-08T05:33:27.375Z,19.63
2017-11-08T05:35:55.623Z,20.37
2017-11-08T05:38:23.734Z,17.87
2017-11-08T05:40:52.274Z,18.93
2017-11-08T05:43:21.046Z,19.80
2017-11-08T05:45:50.436Z,21.17
2017-11-08T05:48:19.231Z,18.90
2017-11-08T05:50:48.335Z,18.70
2017-11-08T05:53:17.327Z,20.60
2017-11-08T05:55:46.595Z,18.77
2017-11-08T05:58:15.439Z,19.13
2017-11-08T06:00:43.510Z,21.10
2017-11-08T06:03:12.147Z,20.53
2017-11-08T06:05:40.377Z,20.23
2017-11-08T06:08:08.436Z,20.13
2017-11-08T06:10:36.636Z,23.17
2017-11-08T06:13:05.427Z,20.00
2017-11-08T06:15:34.071Z,18.50
2017-11-08T06:18:03.450Z,20.50
2017-11-08T06:20:31.686Z,18.47
2017-11-08T06:22:59.723Z,19.83
2017-11-08T06:25:28.507Z,17.60
2017-11-08T06:27:57.431Z,18.20
2017-11-08T06:30:26.685Z,18.30
2017-11-08T06:32:55.390Z,18.33
2017-11-08T06:35:24.343Z,17.80
2017-11-08T06:37:52.397Z,17.77
2017-11-08T06:40:20.455Z,17.90
2017-11-08T06:42:49.156Z,16.90
2017-11-08T06:45:17.818Z,16.07
2017-11-08T06:47:47.187Z,15.63
2017-11-08T06:50:15.908Z,16.33
2017-11-08T06:52:44.881Z,15.57
2017-11-08T06:55:12.940Z,14.87
2017-11-08T06:57:41.104Z,15.73
2017-11-08T07:00:10.644Z,15.40
2017-11-08T07:02:39.879Z,15.60
2017-11-08T07:05:08.672Z,15.43
2017-11-08T07:07:37.472Z,15.50
2017-11-08T07:10:05.594Z,16.07
2017-11-08T07:12:34.515Z,19.00
2017-11-08T07:15:03.195Z,16.10
2017-11-08T07:17:31.895Z,15.03
2017-11-08T07:20:00.563Z,15.67
2017-11-08T07:22:29.347Z,16.10
2017-11-08T07:24:58.178Z,16.37
2017-11-08T07:27:26.377Z,14.13
2017-11-08T07:29:54.469Z,14.13
2017-11-08T07:32:23.751Z,14.63
2017-11-08T07:34:52.652Z,15.47
2017-11-08T07:37:20.848Z,13.67
2017-11-08T07:39:49.780Z,12.63
2017-11-08T07:42:18.553Z,14.30
2017-11-08T07:44:46.677Z,14.80
2017-11-08T07:47:14.851Z,14.30
2017-11-08T07:49:43.755Z,14.30
2017-11-08T07:52:12.643Z,15.70
2017-11-08T07:54:40.953Z,14.47
2017-11-08T07:57:09.880Z,15.70
2017-11-08T07:59:39.356Z,14.60
2017-11-08T08:02:08.891Z,16.20
2017-11-08T08:04:37.882Z,14.33
2017-11-08T08:07:06.065Z,15.90
2017-11-08T08:09:35.170Z,14.47
2017-11-08T08:12:03.477Z,14.20
2017-11-08T08:14:31.652Z,15.60
2017-11-08T08:16:59.960Z,15.70
2017-11-08T08:19:28.925Z,13.83
2017-11-08T08:21:57.108Z,13.53
2017-11-08T08:24:25.193Z,14.83
2017-11-08T08:26:54.300Z,12.97
2017-11-08T08:29:23.236Z,13.20
2017-11-08T08:31:51.407Z,14.87
2017-11-08T08:34:19.617Z,14.87
2017-11-08T08:36:47.787Z,15.07
2017-11-08T08:39:15.956Z,15.13
2017-11-08T08:41:44.166Z,15.27
2017-11-08T08:44:13.084Z,16.53
2017-11-08T08:46:41.877Z,14.10
2017-11-08T08:49:10.825Z,14.73
2017-11-08T08:51:38.996Z,16.70
2017-11-08T08:54:07.113Z,17.87
2017-11-08T08:56:35.449Z,15.47
2017-11-08T08:59:03.656Z,16.73
2017-11-08T09:01:31.820Z,17.43
2017-11-08T09:04:01.378Z,17.00
2017-11-08T09:06:29.933Z,16.37
2017-11-08T09:08:58.668Z,14.83
2017-11-08T09:11:26.948Z,15.77
2017-11-08T09:13:55.062Z,16.33
2017-11-08T09:16:23.904Z,15.87
2017-11-08T09:18:52.860Z,17.00
2017-11-08T09:21:21.952Z,16.10
2017-11-08T09:23:50.691Z,16.00
2017-11-08T09:26:22.074Z,17.57
2017-11-08T09:28:50.275Z,17.57
2017-11-08T09:31:24.339Z,19.50
2017-11-08T09:33:53.088Z,19.17
2017-11-08T09:36:22.004Z,18.00
2017-11-08T09:38:50.667Z,19.47
2017-11-08T09:41:19.277Z,16.77
2017-11-08T09:43:47.664Z,16.17
2017-11-08T09:46:15.984Z,18.13
2017-11-08T09:48:44.532Z,17.47
2017-11-08T09:51:13.240Z,17.70
2017-11-08T09:53:43.897Z,19.50
2017-11-08T09:56:12.100Z,16.90
2017-11-08T09:58:40.353Z,17.73
2017-11-08T10:01:14.133Z,17.13
2017-11-08T10:03:43.064Z,18.60
2017-11-08T10:06:11.752Z,18.10
2017-11-08T10:08:41.299Z,17.50
2017-11-08T10:11:13.538Z,20.50
2017-11-08T10:13:41.735Z,18.43
2017-11-08T10:16:09.870Z,20.70
2017-11-08T10:18:38.074Z,18.73
2017-11-08T10:21:06.439Z,19.80
2017-11-08T10:23:37.886Z,17.83
2017-11-08T10:26:05.977Z,17.83
2017-11-08T10:28:34.087Z,21.07
2017-11-08T10:31:02.301Z,17.60
2017-11-08T10:33:30.476Z,21.10
2017-11-08T10:35:58.684Z,20.73
2017-11-08T10:38:26.775Z,18.60
2017-11-08T10:40:54.892Z,20.13
2017-11-08T10:43:23.045Z,21.80
2017-11-08T10:45:51.142Z,21.80
2017-11-08T10:48:19.323Z,19.57
2017-11-08T10:50:47.533Z,20.63
2017-11-08T10:53:19.430Z,20.50
2017-11-08T10:55:47.787Z,18.70
2017-11-08T10:58:15.981Z,21.50
2017-11-08T11:00:48.015Z,20.20
2017-11-08T11:03:16.993Z,20.53
2017-11-08T11:05:45.322Z,19.47
2017-11-08T11:08:13.686Z,20.43
2017-11-08T11:10:41.966Z,20.77
2017-11-08T11:13:15.093Z,18.60
2017-11-08T11:15:44.030Z,18.77
2017-11-08T11:18:13.614Z,20.73
2017-11-08T11:20:49.166Z,21.50
2017-11-08T11:23:17.569Z,20.57
2017-11-08T11:25:47.308Z,20.57
2017-11-08T11:28:15.681Z,20.53
2017-11-08T11:30:44.594Z,21.80
2017-11-08T11:33:12.960Z,21.10
2017-11-08T11:35:41.348Z,22.70
2017-11-08T11:38:11.358Z,22.33
2017-11-08T11:40:40.006Z,22.80
2017-11-08T11:43:08.525Z,23.67
2017-11-08T11:45:36.763Z,23.60
2017-11-08T11:48:05.023Z,22.53
2017-11-08T11:50:33.989Z,23.67
2017-11-08T11:53:02.997Z,22.13
2017-11-08T11:55:31.920Z,22.80
2017-11-08T11:58:00.399Z,24.30
2017-11-08T12:00:30.614Z,22.80
2017-11-08T12:02:59.192Z,20.63
2017-11-08T12:05:27.809Z,20.47
2017-11-08T12:07:56.762Z,21.57
2017-11-08T12:10:27.553Z,22.37
2017-11-08T12:12:58.369Z,20.93
2017-11-08T12:15:26.584Z,23.13
2017-11-08T12:17:55.598Z,21.83
2017-11-08T12:20:24.555Z,27.40
2017-11-08T12:22:53.353Z,24.03
2017-11-08T12:25:22.785Z,23.87
2017-11-08T12:27:51.233Z,21.07
2017-11-08T12:30:19.742Z,23.73
2017-11-08T12:32:48.053Z,21.70
2017-11-08T12:35:16.925Z,22.20
2017-11-08T12:37:46.177Z,24.17
2017-11-08T12:40:19.979Z,23.17
2017-11-08T12:46:05.990Z,25.63
2017-11-08T12:48:34.248Z,24.90
2017-11-08T12:51:02.866Z,25.50
2017-11-08T12:53:31.260Z,24.80
2017-11-08T12:56:00.303Z,23.73
2017-11-08T12:58:28.568Z,25.07
2017-11-08T13:00:57.101Z,25.40
2017-11-08T13:03:26.191Z,26.17
2017-11-08T13:06:00.303Z,28.40
2017-11-08T13:08:28.898Z,26.10
2017-11-08T13:11:03.267Z,25.93
2017-11-08T13:13:32.194Z,29.20
2017-11-08T13:16:00.594Z,27.00
2017-11-08T13:18:29.096Z,27.30
2017-11-08T13:20:58.487Z,26.83
2017-11-08T13:23:27.182Z,26.60
2017-11-08T13:25:56.919Z,26.40
2017-11-08T13:28:25.511Z,25.83
2017-11-08T13:30:54.461Z,25.30
2017-11-08T13:33:22.891Z,25.30
2017-11-08T13:35:51.166Z,24.53
2017-11-08T13:38:19.504Z,26.97
2017-11-08T13:40:48.581Z,26.73
2017-11-08T13:43:17.178Z,27.20
2017-11-08T13:45:45.873Z,26.80
2017-11-08T13:48:14.231Z,29.00
2017-11-08T13:50:42.544Z,29.13
2017-11-08T13:53:11.975Z,26.67
2017-11-08T13:55:40.325Z,28.27
2017-11-08T13:58:08.862Z,26.00
2017-11-08T14:00:37.756Z,27.10
2017-11-08T14:03:06.180Z,28.53
2017-11-08T14:05:34.632Z,24.83
2017-11-08T14:08:03.537Z,27.83
2017-11-08T14:10:32.426Z,29.47
2017-11-08T14:13:01.076Z,29.57
2017-11-08T14:15:29.710Z,28.97
2017-11-08T14:17:57.805Z,30.47
2017-11-08T14:20:26.649Z,31.17
2017-11-08T14:22:54.774Z,30.20
2017-11-08T14:25:24.041Z,31.50
2017-11-08T14:27:52.854Z,31.60
2017-11-08T14:30:22.257Z,31.93
2017-11-08T14:32:51.220Z,31.23
2017-11-08T14:35:19.402Z,31.53
2017-11-08T14:37:48.057Z,31.40
2017-11-08T14:40:16.693Z,31.40
2017-11-08T14:42:48.626Z,32.20
2017-11-08T14:45:18.042Z,32.20
2017-11-08T14:47:46.658Z,33.17
2017-11-08T14:50:15.498Z,31.33
2017-11-08T14:52:44.082Z,33.03
2017-11-08T14:55:12.705Z,31.73
2017-11-08T14:57:41.571Z,32.37
2017-11-08T15:00:10.241Z,32.83
2017-11-08T15:02:38.844Z,31.77
2017-11-08T15:05:07.049Z,32.07
2017-11-08T15:07:35.382Z,32.30
2017-11-08T15:10:04.210Z,34.83
2017-11-08T15:12:38.118Z,36.40
2017-11-08T15:15:12.139Z,33.73
2017-11-08T15:17:40.674Z,33.77
2017-11-08T15:20:10.209Z,35.20
2017-11-08T15:22:38.873Z,35.23
2017-11-08T15:25:06.987Z,32.90
2017-11-08T15:27:35.161Z,34.00
2017-11-08T15:30:04.698Z,35.00
2017-11-08T15:32:34.369Z,34.03
2017-11-08T15:35:02.705Z,33.77
2017-11-08T15:37:30.817Z,34.10
2017-11-08T15:39:59.597Z,34.60
2017-11-08T15:42:27.690Z,35.83
2017-11-08T15:44:55.798Z,33.50
2017-11-08T15:47:25.481Z,35.60
2017-11-08T15:49:56.590Z,34.07
2017-11-08T15:52:24.764Z,34.10
2017-11-08T15:54:53.511Z,35.60
2017-11-08T15:57:23.110Z,36.10
2017-11-08T15:59:51.966Z,34.97
2017-11-08T16:02:20.689Z,34.10
2017-11-08T16:04:48.782Z,35.10
2017-11-08T16:07:17.714Z,32.43
2017-11-08T16:09:46.789Z,35.07
2017-11-08T16:12:14.918Z,34.47
2017-11-08T16:14:43.709Z,32.13
2017-11-08T16:17:13.155Z,33.80
2017-11-08T16:19:41.333Z,35.23
2017-11-08T16:22:09.442Z,30.50
2017-11-08T16:24:37.653Z,33.20
2017-11-08T16:27:06.486Z,32.40
2017-11-08T16:29:35.181Z,30.77
2017-11-08T16:32:05.447Z,33.30
2017-11-08T16:34:33.557Z,32.13
2017-11-08T16:37:01.662Z,32.17
2017-11-08T16:39:29.977Z,32.97
2017-11-08T16:54:56.396Z,33.17
2017-11-08T16:57:25.023Z,32.10
2017-11-08T16:59:53.116Z,32.87
2017-11-08T17:02:21.826Z,32.80
2017-11-08T17:04:50.591Z,36.37
2017-11-08T17:07:18.770Z,33.30
2017-11-08T17:09:47.157Z,32.60
2017-11-08T17:12:15.830Z,31.60
2017-11-08T17:14:44.522Z,31.17
2017-11-08T17:17:13.302Z,32.17
2017-11-08T17:19:42.033Z,32.00
2017-11-08T17:22:10.129Z,33.27
2017-11-08T17:24:39.126Z,33.10
2017-11-08T17:27:08.044Z,33.07
2017-11-08T17:29:36.684Z,30.53
2017-11-08T17:32:05.573Z,31.93
2017-11-08T17:34:35.170Z,30.67
2017-11-08T17:37:03.261Z,30.30
2017-11-08T17:39:31.569Z,31.87
2017-11-08T17:42:00.401Z,31.80
2017-11-08T17:44:29.113Z,31.53
2017-11-08T17:46:58.107Z,30.53
2017-11-08T17:49:26.806Z,29.33
2017-11-08T17:51:54.912Z,29.10
2017-11-08T17:54:23.208Z,28.33
2017-11-08T17:56:51.389Z,26.00
2017-11-08T17:59:20.181Z,25.80
2017-11-08T18:01:49.154Z,26.93
2017-11-08T18:04:18.718Z,27.70
2017-11-08T18:06:46.801Z,26.67
2017-11-08T18:09:15.888Z,27.27
2017-11-08T18:11:44.687Z,25.80
2017-11-08T18:14:13.530Z,26.87
2017-11-08T18:16:41.827Z,26.90
2017-11-08T18:19:10.620Z,26.47
2017-11-08T18:21:39.277Z,26.70
2017-11-08T18:24:07.590Z,25.70
2017-11-08T18:26:35.690Z,27.50
2017-11-08T18:29:05.370Z,26.63
2017-11-08T18:31:34.093Z,26.10
2017-11-08T18:34:03.591Z,24.73
2017-11-08T18:36:32.434Z,26.43
2017-11-08T18:39:00.670Z,24.97
2017-11-08T18:41:29.511Z,26.63
2017-11-08T18:43:58.182Z,24.50
2017-11-08T18:46:26.419Z,23.90
2017-11-08T18:48:56.828Z,24.63
2017-11-08T18:51:25.014Z,25.93
2017-11-08T18:53:53.988Z,24.77
2017-11-08T18:56:22.119Z,26.20
2017-11-08T18:58:50.357Z,23.87
2017-11-08T19:01:19.027Z,22.80
2017-11-08T19:03:47.825Z,22.80
2017-11-08T19:06:15.954Z,21.87
2017-11-08T19:08:44.875Z,22.80
2017-11-08T19:11:13.746Z,21.87
2017-11-08T19:13:42.070Z,22.73
2017-11-08T19:16:11.626Z,21.17
2017-11-08T19:18:40.353Z,21.57
2017-11-08T19:21:09.119Z,21.90
2017-11-08T19:23:37.756Z,22.93
2017-11-08T19:26:06.681Z,22.40
2017-11-08T19:28:34.786Z,21.80
2017-11-08T19:31:03.499Z,20.90
2017-11-08T19:33:32.977Z,19.67
2017-11-08T19:36:01.750Z,21.30
2017-11-08T19:38:30.983Z,20.90
2017-11-08T19:40:59.245Z,21.47
2017-11-08T19:43:27.422Z,20.53
2017-11-08T19:45:56.188Z,19.90
2017-11-08T19:48:24.849Z,20.63
2017-11-08T19:50:53.750Z,19.97
2017-11-08T19:53:22.758Z,20.07
2017-11-08T19:55:50.933Z,21.10
2017-11-08T19:58:19.114Z,21.00
2017-11-08T20:00:47.823Z,21.60
2017-11-08T20:03:16.523Z,21.37
2017-11-08T20:05:45.252Z,19.73
2017-11-08T20:08:14.187Z,21.03
2017-11-08T20:10:42.499Z,20.13
2017-11-08T20:13:11.332Z,19.90
2017-11-08T20:15:39.776Z,21.40
2017-11-08T20:18:09.207Z,22.47
2017-11-08T20:20:38.006Z,22.60
2017-11-08T20:23:06.945Z,21.30
2017-11-08T20:25:35.049Z,20.57
2017-11-08T20:28:03.963Z,22.73
2017-11-08T20:30:32.278Z,23.13
2017-11-08T20:33:00.382Z,22.80
2017-11-08T20:35:29.646Z,22.77
2017-11-08T20:37:58.512Z,24.67
2017-11-08T20:40:27.132Z,24.00
2017-11-08T20:42:55.336Z,23.93
2017-11-08T20:45:24.397Z,22.30
2017-11-08T20:47:52.997Z,21.50
2017-11-08T20:50:22.349Z,23.27
2017-11-08T20:52:51.189Z,23.40
2017-11-08T20:55:19.939Z,23.67
2017-11-08T20:57:48.054Z,25.20
2017-11-08T21:00:16.344Z,24.00
2017-11-08T21:02:45.673Z,23.63
2017-11-08T21:05:14.381Z,23.43
2017-11-08T21:07:43.070Z,23.57
2017-11-08T21:10:11.725Z,24.53
2017-11-08T21:12:39.917Z,24.90
2017-11-08T21:15:08.225Z,24.37
2017-11-08T21:17:36.982Z,23.77
2017-11-08T21:20:05.681Z,23.60
2017-11-08T21:22:33.965Z,23.63
2017-11-08T21:25:02.616Z,24.93
2017-11-08T21:27:30.722Z,23.90
2017-11-08T21:29:58.952Z,26.37
2017-11-08T21:32:28.369Z,23.97
2017-11-08T21:34:57.934Z,25.30
2017-11-08T21:37:26.369Z,23.77
2017-11-08T21:39:54.553Z,26.80
2017-11-08T21:42:23.446Z,26.30
2017-11-08T21:44:51.726Z,28.33
2017-11-08T21:47:19.895Z,29.57
2017-11-08T21:49:48.490Z,30.23
2017-11-08T21:52:17.318Z,30.43
2017-11-08T21:54:45.957Z,32.37
2017-11-08T21:57:14.073Z,32.50
2017-11-08T21:59:43.073Z,32.07
2017-11-08T22:02:11.243Z,33.30
2017-11-08T22:04:39.723Z,32.73
2017-11-08T22:07:08.017Z,33.90
2017-11-08T22:09:36.793Z,34.17
2017-11-08T22:12:05.340Z,32.60
2017-11-08T22:14:33.713Z,31.30
2017-11-08T22:17:01.897Z,32.50
2017-11-08T22:19:30.525Z,30.97
2017-11-08T22:21:59.424Z,30.40
2017-11-08T22:24:28.473Z,28.47
2017-11-08T22:26:57.208Z,30.60
2017-11-08T22:29:25.505Z,33.63
2017-11-08T22:31:54.366Z,32.03
2017-11-08T22:34:23.005Z,33.40
2017-11-08T22:36:51.957Z,35.07
2017-11-08T22:39:20.797Z,35.23
2017-11-08T22:41:49.624Z,34.50
2017-11-08T22:44:18.796Z,34.80
2017-11-08T22:46:46.889Z,36.97
2017-11-08T22:49:15.610Z,37.23
2017-11-08T22:51:44.642Z,35.97
2017-11-08T22:54:13.475Z,38.47
2017-11-08T22:56:41.954Z,39.57
2017-11-08T22:59:10.165Z,39.53
2017-11-08T23:01:39.014Z,40.80
2017-11-08T23:04:07.201Z,39.80
2017-11-08T23:06:35.962Z,41.43
2017-11-08T23:09:04.427Z,42.67
2017-11-08T23:11:35.570Z,42.83
2017-11-08T23:14:04.511Z,41.73
2017-11-08T23:16:32.597Z,41.23
2017-11-08T23:19:00.765Z,41.27
2017-11-08T23:21:29.424Z,45.40
2017-11-08T23:23:57.977Z,41.50
2017-11-08T23:26:26.828Z,44.17
2017-11-08T23:28:55.629Z,44.33
2017-11-08T23:31:24.153Z,46.30
2017-11-08T23:33:52.237Z,47.20
2017-11-08T23:36:21.153Z,47.33
2017-11-08T23:38:49.781Z,45.33
2017-11-08T23:41:18.942Z,44.33
2017-11-08T23:43:47.536Z,44.97
2017-11-08T23:46:15.693Z,44.50
2017-11-08T23:48:43.801Z,47.10
2017-11-08T23:51:16.533Z,48.07
2017-11-08T23:53:45.098Z,46.57
2017-11-08T23:56:28.367Z,46.40
2017-11-08T23:58:57.113Z,44.00
